KOMA/OMA METAR and TAF weather

Enter ICAO airport designator
Station Type Date Time Source
KOMA METAR 2022/11/30 17:52 UTC NOAA

KOMA 301752Z 30014KT 10SM CLR M04/M13 A3037 RMK AO2 SLP297 T10441128 11044 21089 50014


Station Type Date Time Source
KOMA Decoded METAR 2022/11/30 17:52 UTC NOAA

OMAHA EPPLEY AIRFIELD, NE, United States (KOMA) 41-18N 095-54W 312M
Nov 30, 2022 - 12:52 PM EST / 2022.11.30 1752 UTC
Wind: from the WNW (300 degrees) at 16 MPH (14 KT):0
Visibility: 10 mile(s):0
Sky conditions: clear
Temperature: 24.1 F (-4.4 C)
Windchill: 10 F (-12 C):1
Dew Point: 9.0 F (-12.8 C)
Relative Humidity: 51%
Pressure (altimeter): 30.37 in. Hg (1028 hPa)
Pressure tendency: 0.04 inches (1.4 hPa) higher than three hours ago
ob: KOMA 301752Z 30014KT 10SM CLR M04/M13 A3037 RMK AO2 SLP297 T10441128 11044 21089 50014
cycle: 18

Station Type Date Time Source
KOMA TAF 2022/11/30 18:28 UTC NOAA

TAF KOMA 301726Z 3018/0118 30012G20KT P6SM SKC
FM010100 15007KT P6SM SKC
FM011000 16012G20KT P6SM SKC WS013/19055KT
FM011500 18020G35KT P6SM SKC WS013/19055KT

Example: see airport list